sensor_id;sensor_type;location;lat;lon;timestamp;P1;durP1;ratioP1;P2;durP2;ratioP2
9304;SDS011;4690;52.422;13.486;2023-04-15T00:05:29;144.10;;;44.47;;
9304;SDS011;4690;52.422;13.486;2023-04-15T00:07:55;67.03;;;32.73;;
9304;SDS011;4690;52.422;13.486;2023-04-15T00:10:23;128.83;;;41.50;;
9304;SDS011;4690;52.422;13.486;2023-04-15T00:12:49;122.33;;;40.33;;
9304;SDS011;4690;52.422;13.486;2023-04-15T00:15:16;121.53;;;42.40;;
9304;SDS011;4690;52.422;13.486;2023-04-15T00:17:42;144.53;;;46.37;;
9304;SDS011;4690;52.422;13.486;2023-04-15T00:20:08;99.80;;;38.63;;
9304;SDS011;4690;52.422;13.486;2023-04-15T00:22:34;69.03;;;35.30;;
9304;SDS011;4690;52.422;13.486;2023-04-15T00:25:00;90.63;;;38.53;;
9304;SDS011;4690;52.422;13.486;2023-04-15T00:27:27;150.33;;;45.73;;
9304;SDS011;4690;52.422;13.486;2023-04-15T00:29:53;113.07;;;42.30;;
9304;SDS011;4690;52.422;13.486;2023-04-15T00:32:20;69.93;;;35.90;;
9304;SDS011;4690;52.422;13.486;2023-04-15T00:34:46;101.43;;;41.23;;
9304;SDS011;4690;52.422;13.486;2023-04-15T00:37:12;78.57;;;35.13;;
9304;SDS011;4690;52.422;13.486;2023-04-15T00:39:37;143.30;;;42.53;;
9304;SDS011;4690;52.422;13.486;2023-04-15T00:42:04;101.80;;;41.87;;
9304;SDS011;4690;52.422;13.486;2023-04-15T00:44:30;92.33;;;39.13;;
9304;SDS011;4690;52.422;13.486;2023-04-15T00:46:57;95.57;;;41.30;;
9304;SDS011;4690;52.422;13.486;2023-04-15T00:49:24;86.87;;;37.80;;
9304;SDS011;4690;52.422;13.486;2023-04-15T00:51:52;165.57;;;48.03;;
9304;SDS011;4690;52.422;13.486;2023-04-15T00:54:18;63.67;;;34.90;;
9304;SDS011;4690;52.422;13.486;2023-04-15T00:56:45;119.27;;;42.63;;
9304;SDS011;4690;52.422;13.486;2023-04-15T00:59:11;205.43;;;51.53;;
9304;SDS011;4690;52.422;13.486;2023-04-15T01:01:38;69.83;;;37.87;;
9304;SDS011;4690;52.422;13.486;2023-04-15T01:04:04;76.40;;;36.53;;
9304;SDS011;4690;52.422;13.486;2023-04-15T01:06:31;87.37;;;38.40;;
9304;SDS011;4690;52.422;13.486;2023-04-15T01:08:57;187.33;;;52.83;;
9304;SDS011;4690;52.422;13.486;2023-04-15T01:11:24;60.67;;;36.37;;
9304;SDS011;4690;52.422;13.486;2023-04-15T01:13:52;66.50;;;35.00;;
9304;SDS011;4690;52.422;13.486;2023-04-15T01:16:21;117.30;;;39.27;;
9304;SDS011;4690;52.422;13.486;2023-04-15T01:18:46;173.57;;;48.90;;
9304;SDS011;4690;52.422;13.486;2023-04-15T01:21:13;85.83;;;39.17;;
9304;SDS011;4690;52.422;13.486;2023-04-15T01:23:39;181.33;;;51.17;;
9304;SDS011;4690;52.422;13.486;2023-04-15T01:26:05;116.30;;;42.23;;
9304;SDS011;4690;52.422;13.486;2023-04-15T01:28:33;126.40;;;43.07;;
9304;SDS011;4690;52.422;13.486;2023-04-15T01:31:10;70.43;;;38.40;;
9304;SDS011;4690;52.422;13.486;2023-04-15T01:33:41;153.73;;;46.47;;
9304;SDS011;4690;52.422;13.486;2023-04-15T01:36:07;87.50;;;38.37;;
9304;SDS011;4690;52.422;13.486;2023-04-15T01:38:35;196.03;;;48.47;;
9304;SDS011;4690;52.422;13.486;2023-04-15T01:41:02;99.77;;;38.67;;
9304;SDS011;4690;52.422;13.486;2023-04-15T01:43:32;59.63;;;35.23;;
9304;SDS011;4690;52.422;13.486;2023-04-15T01:46:00;129.90;;;45.73;;
9304;SDS011;4690;52.422;13.486;2023-04-15T01:48:26;136.20;;;44.83;;
9304;SDS011;4690;52.422;13.486;2023-04-15T01:50:53;142.37;;;44.03;;
9304;SDS011;4690;52.422;13.486;2023-04-15T01:53:21;151.40;;;45.50;;
9304;SDS011;4690;52.422;13.486;2023-04-15T01:55:47;106.30;;;42.23;;
9304;SDS011;4690;52.422;13.486;2023-04-15T01:58:13;264.23;;;60.33;;
9304;SDS011;4690;52.422;13.486;2023-04-15T02:00:39;56.33;;;34.93;;
9304;SDS011;4690;52.422;13.486;2023-04-15T02:03:05;189.77;;;49.17;;
9304;SDS011;4690;52.422;13.486;2023-04-15T02:05:32;167.63;;;48.93;;
9304;SDS011;4690;52.422;13.486;2023-04-15T02:07:57;96.77;;;41.73;;
9304;SDS011;4690;52.422;13.486;2023-04-15T02:10:23;78.00;;;37.77;;
9304;SDS011;4690;52.422;13.486;2023-04-15T02:12:49;108.70;;;41.90;;
9304;SDS011;4690;52.422;13.486;2023-04-15T02:15:15;84.60;;;38.13;;
9304;SDS011;4690;52.422;13.486;2023-04-15T02:17:41;132.20;;;47.27;;
9304;SDS011;4690;52.422;13.486;2023-04-15T02:20:10;243.87;;;57.70;;
9304;SDS011;4690;52.422;13.486;2023-04-15T02:22:36;201.73;;;51.07;;
9304;SDS011;4690;52.422;13.486;2023-04-15T02:25:02;137.33;;;45.87;;
9304;SDS011;4690;52.422;13.486;2023-04-15T02:27:28;81.43;;;40.30;;
9304;SDS011;4690;52.422;13.486;2023-04-15T02:29:54;194.07;;;50.30;;
9304;SDS011;4690;52.422;13.486;2023-04-15T02:32:20;69.53;;;37.90;;
9304;SDS011;4690;52.422;13.486;2023-04-15T02:34:48;98.73;;;42.07;;
9304;SDS011;4690;52.422;13.486;2023-04-15T02:37:14;85.97;;;39.80;;
9304;SDS011;4690;52.422;13.486;2023-04-15T02:39:40;100.53;;;41.27;;
9304;SDS011;4690;52.422;13.486;2023-04-15T02:42:06;224.17;;;54.03;;
9304;SDS011;4690;52.422;13.486;2023-04-15T02:44:31;115.67;;;43.93;;
9304;SDS011;4690;52.422;13.486;2023-04-15T02:46:59;166.43;;;52.03;;
9304;SDS011;4690;52.422;13.486;2023-04-15T02:49:25;93.67;;;45.43;;
9304;SDS011;4690;52.422;13.486;2023-04-15T02:51:53;121.30;;;46.03;;
9304;SDS011;4690;52.422;13.486;2023-04-15T02:54:20;202.83;;;51.73;;
9304;SDS011;4690;52.422;13.486;2023-04-15T02:56:50;62.47;;;37.30;;
9304;SDS011;4690;52.422;13.486;2023-04-15T02:59:19;127.73;;;43.17;;
9304;SDS011;4690;52.422;13.486;2023-04-15T03:01:45;142.13;;;47.10;;
9304;SDS011;4690;52.422;13.486;2023-04-15T03:04:11;128.37;;;43.93;;
9304;SDS011;4690;52.422;13.486;2023-04-15T03:06:37;63.40;;;37.13;;
9304;SDS011;4690;52.422;13.486;2023-04-15T03:09:03;189.77;;;51.27;;
9304;SDS011;4690;52.422;13.486;2023-04-15T03:11:29;119.27;;;42.43;;
9304;SDS011;4690;52.422;13.486;2023-04-15T03:13:56;143.07;;;45.17;;
9304;SDS011;4690;52.422;13.486;2023-04-15T03:16:23;154.30;;;48.30;;
9304;SDS011;4690;52.422;13.486;2023-04-15T03:18:49;75.77;;;39.37;;
9304;SDS011;4690;52.422;13.486;2023-04-15T03:21:15;60.23;;;35.60;;
9304;SDS011;4690;52.422;13.486;2023-04-15T03:23:41;76.13;;;37.23;;
9304;SDS011;4690;52.422;13.486;2023-04-15T03:26:07;77.10;;;35.57;;
9304;SDS011;4690;52.422;13.486;2023-04-15T03:28:32;98.47;;;39.93;;
9304;SDS011;4690;52.422;13.486;2023-04-15T03:30:58;138.77;;;42.07;;
9304;SDS011;4690;52.422;13.486;2023-04-15T03:33:24;143.23;;;45.10;;
9304;SDS011;4690;52.422;13.486;2023-04-15T03:35:51;132.20;;;43.67;;
9304;SDS011;4690;52.422;13.486;2023-04-15T03:38:17;81.80;;;36.93;;
9304;SDS011;4690;52.422;13.486;2023-04-15T03:40:44;126.23;;;42.43;;
9304;SDS011;4690;52.422;13.486;2023-04-15T03:43:10;89.23;;;39.20;;
9304;SDS011;4690;52.422;13.486;2023-04-15T03:45:36;102.80;;;38.93;;
9304;SDS011;4690;52.422;13.486;2023-04-15T03:48:02;86.90;;;38.13;;
9304;SDS011;4690;52.422;13.486;2023-04-15T03:50:28;97.70;;;37.13;;
9304;SDS011;4690;52.422;13.486;2023-04-15T03:52:54;76.43;;;36.23;;
9304;SDS011;4690;52.422;13.486;2023-04-15T03:55:20;87.23;;;36.73;;
9304;SDS011;4690;52.422;13.486;2023-04-15T03:57:46;64.80;;;35.90;;
9304;SDS011;4690;52.422;13.486;2023-04-15T04:00:11;147.23;;;43.97;;
9304;SDS011;4690;52.422;13.486;2023-04-15T04:02:37;55.27;;;33.13;;
9304;SDS011;4690;52.422;13.486;2023-04-15T04:05:03;63.10;;;34.60;;
9304;SDS011;4690;52.422;13.486;2023-04-15T04:07:29;105.07;;;38.33;;
9304;SDS011;4690;52.422;13.486;2023-04-15T04:09:56;82.67;;;35.40;;
9304;SDS011;4690;52.422;13.486;2023-04-15T04:12:22;76.83;;;35.23;;
9304;SDS011;4690;52.422;13.486;2023-04-15T04:14:48;105.13;;;44.33;;
9304;SDS011;4690;52.422;13.486;2023-04-15T04:17:13;47.37;;;31.03;;
9304;SDS011;4690;52.422;13.486;2023-04-15T04:19:39;133.77;;;41.40;;
9304;SDS011;4690;52.422;13.486;2023-04-15T04:22:05;63.40;;;31.10;;
9304;SDS011;4690;52.422;13.486;2023-04-15T04:24:31;113.97;;;40.33;;
9304;SDS011;4690;52.422;13.486;2023-04-15T04:26:57;131.17;;;39.30;;
9304;SDS011;4690;52.422;13.486;2023-04-15T04:29:22;136.73;;;41.33;;
9304;SDS011;4690;52.422;13.486;2023-04-15T04:31:48;84.30;;;36.17;;
9304;SDS011;4690;52.422;13.486;2023-04-15T04:34:14;65.47;;;33.43;;
9304;SDS011;4690;52.422;13.486;2023-04-15T04:36:40;72.20;;;33.73;;
9304;SDS011;4690;52.422;13.486;2023-04-15T04:39:06;122.03;;;39.50;;
9304;SDS011;4690;52.422;13.486;2023-04-15T04:41:32;121.83;;;42.60;;
9304;SDS011;4690;52.422;13.486;2023-04-15T04:43:58;65.60;;;34.17;;
9304;SDS011;4690;52.422;13.486;2023-04-15T04:46:23;106.70;;;38.20;;
9304;SDS011;4690;52.422;13.486;2023-04-15T04:48:49;96.87;;;37.87;;
9304;SDS011;4690;52.422;13.486;2023-04-15T04:51:15;73.77;;;34.00;;
9304;SDS011;4690;52.422;13.486;2023-04-15T04:53:42;114.03;;;37.20;;
9304;SDS011;4690;52.422;13.486;2023-04-15T04:56:08;69.20;;;34.37;;
9304;SDS011;4690;52.422;13.486;2023-04-15T04:58:34;43.13;;;27.40;;
9304;SDS011;4690;52.422;13.486;2023-04-15T05:00:59;41.77;;;28.33;;
9304;SDS011;4690;52.422;13.486;2023-04-15T05:03:26;62.90;;;31.93;;
9304;SDS011;4690;52.422;13.486;2023-04-15T05:05:53;89.27;;;34.37;;
9304;SDS011;4690;52.422;13.486;2023-04-15T05:08:19;74.13;;;34.07;;
9304;SDS011;4690;52.422;13.486;2023-04-15T05:10:44;42.30;;;25.97;;
9304;SDS011;4690;52.422;13.486;2023-04-15T05:13:10;66.70;;;29.97;;
9304;SDS011;4690;52.422;13.486;2023-04-15T05:15:37;36.00;;;25.20;;
9304;SDS011;4690;52.422;13.486;2023-04-15T05:18:05;35.57;;;26.10;;
9304;SDS011;4690;52.422;13.486;2023-04-15T05:20:31;34.80;;;25.60;;
9304;SDS011;4690;52.422;13.486;2023-04-15T05:22:56;34.10;;;25.80;;
9304;SDS011;4690;52.422;13.486;2023-04-15T05:25:22;52.13;;;28.13;;
9304;SDS011;4690;52.422;13.486;2023-04-15T05:27:48;46.93;;;26.40;;
9304;SDS011;4690;52.422;13.486;2023-04-15T05:30:13;39.03;;;25.70;;
9304;SDS011;4690;52.422;13.486;2023-04-15T05:32:39;58.93;;;28.60;;
9304;SDS011;4690;52.422;13.486;2023-04-15T05:35:05;39.93;;;25.53;;
9304;SDS011;4690;52.422;13.486;2023-04-15T05:37:32;53.03;;;28.60;;
9304;SDS011;4690;52.422;13.486;2023-04-15T05:39:58;32.30;;;24.73;;
9304;SDS011;4690;52.422;13.486;2023-04-15T05:42:23;44.23;;;25.73;;
9304;SDS011;4690;52.422;13.486;2023-04-15T05:44:49;30.23;;;22.93;;
9304;SDS011;4690;52.422;13.486;2023-04-15T05:47:15;28.20;;;22.03;;
9304;SDS011;4690;52.422;13.486;2023-04-15T05:49:41;28.10;;;22.40;;
9304;SDS011;4690;52.422;13.486;2023-04-15T05:52:07;26.10;;;21.27;;
9304;SDS011;4690;52.422;13.486;2023-04-15T05:54:33;27.40;;;21.53;;
9304;SDS011;4690;52.422;13.486;2023-04-15T05:56:58;30.87;;;21.43;;
9304;SDS011;4690;52.422;13.486;2023-04-15T05:59:24;22.53;;;20.10;;
9304;SDS011;4690;52.422;13.486;2023-04-15T06:01:51;22.03;;;19.70;;
9304;SDS011;4690;52.422;13.486;2023-04-15T06:04:16;25.43;;;19.57;;
9304;SDS011;4690;52.422;13.486;2023-04-15T06:06:42;22.97;;;19.87;;
9304;SDS011;4690;52.422;13.486;2023-04-15T06:09:08;24.83;;;19.80;;
9304;SDS011;4690;52.422;13.486;2023-04-15T06:11:34;21.70;;;18.43;;
9304;SDS011;4690;52.422;13.486;2023-04-15T06:14:00;26.20;;;19.47;;
9304;SDS011;4690;52.422;13.486;2023-04-15T06:16:27;19.90;;;17.80;;
9304;SDS011;4690;52.422;13.486;2023-04-15T06:18:53;22.53;;;19.37;;
9304;SDS011;4690;52.422;13.486;2023-04-15T06:21:18;20.17;;;17.73;;
9304;SDS011;4690;52.422;13.486;2023-04-15T06:23:44;20.13;;;17.97;;
9304;SDS011;4690;52.422;13.486;2023-04-15T06:26:10;22.50;;;18.50;;
9304;SDS011;4690;52.422;13.486;2023-04-15T06:28:36;20.50;;;18.40;;
9304;SDS011;4690;52.422;13.486;2023-04-15T06:31:02;19.87;;;17.77;;
9304;SDS011;4690;52.422;13.486;2023-04-15T06:33:28;19.83;;;17.77;;
9304;SDS011;4690;52.422;13.486;2023-04-15T06:35:53;22.27;;;18.60;;
9304;SDS011;4690;52.422;13.486;2023-04-15T06:38:19;18.37;;;16.47;;
9304;SDS011;4690;52.422;13.486;2023-04-15T06:40:45;19.10;;;17.03;;
9304;SDS011;4690;52.422;13.486;2023-04-15T06:43:11;18.40;;;16.50;;
9304;SDS011;4690;52.422;13.486;2023-04-15T06:45:36;17.63;;;15.83;;
9304;SDS011;4690;52.422;13.486;2023-04-15T06:48:02;16.37;;;14.67;;
9304;SDS011;4690;52.422;13.486;2023-04-15T06:50:28;15.70;;;13.97;;
9304;SDS011;4690;52.422;13.486;2023-04-15T06:52:54;17.27;;;15.53;;
9304;SDS011;4690;52.422;13.486;2023-04-15T06:55:21;15.50;;;14.00;;
9304;SDS011;4690;52.422;13.486;2023-04-15T06:57:47;15.87;;;14.27;;
9304;SDS011;4690;52.422;13.486;2023-04-15T07:00:12;16.17;;;14.60;;
9304;SDS011;4690;52.422;13.486;2023-04-15T07:02:38;17.00;;;14.47;;
9304;SDS011;4690;52.422;13.486;2023-04-15T07:05:05;16.27;;;14.63;;
9304;SDS011;4690;52.422;13.486;2023-04-15T07:07:31;16.40;;;13.77;;
9304;SDS011;4690;52.422;13.486;2023-04-15T07:09:57;15.77;;;14.17;;
9304;SDS011;4690;52.422;13.486;2023-04-15T07:12:23;16.43;;;14.90;;
9304;SDS011;4690;52.422;13.486;2023-04-15T07:14:50;16.87;;;15.00;;
9304;SDS011;4690;52.422;13.486;2023-04-15T07:17:15;15.20;;;13.80;;
9304;SDS011;4690;52.422;13.486;2023-04-15T07:19:41;15.57;;;14.03;;
9304;SDS011;4690;52.422;13.486;2023-04-15T07:22:07;17.83;;;15.87;;
9304;SDS011;4690;52.422;13.486;2023-04-15T07:24:33;16.80;;;15.07;;
9304;SDS011;4690;52.422;13.486;2023-04-15T07:26:59;16.90;;;15.30;;
9304;SDS011;4690;52.422;13.486;2023-04-15T07:29:25;17.03;;;15.43;;
9304;SDS011;4690;52.422;13.486;2023-04-15T07:31:51;18.07;;;16.27;;
9304;SDS011;4690;52.422;13.486;2023-04-15T07:34:18;16.87;;;15.13;;
9304;SDS011;4690;52.422;13.486;2023-04-15T07:36:44;19.33;;;17.40;;
9304;SDS011;4690;52.422;13.486;2023-04-15T07:39:14;20.17;;;18.07;;
9304;SDS011;4690;52.422;13.486;2023-04-15T07:41:40;19.57;;;17.60;;
9304;SDS011;4690;52.422;13.486;2023-04-15T07:44:06;18.70;;;16.67;;
9304;SDS011;4690;52.422;13.486;2023-04-15T07:46:32;18.70;;;16.83;;
9304;SDS011;4690;52.422;13.486;2023-04-15T07:48:58;19.17;;;17.23;;
9304;SDS011;4690;52.422;13.486;2023-04-15T07:51:23;19.83;;;17.90;;
9304;SDS011;4690;52.422;13.486;2023-04-15T07:53:49;19.33;;;17.43;;
9304;SDS011;4690;52.422;13.486;2023-04-15T07:56:15;18.43;;;16.43;;
9304;SDS011;4690;52.422;13.486;2023-04-15T07:58:41;19.90;;;17.97;;
9304;SDS011;4690;52.422;13.486;2023-04-15T08:01:07;18.97;;;17.07;;
9304;SDS011;4690;52.422;13.486;2023-04-15T08:03:33;20.30;;;18.20;;
9304;SDS011;4690;52.422;13.486;2023-04-15T08:05:59;21.60;;;19.40;;
9304;SDS011;4690;52.422;13.486;2023-04-15T08:08:25;20.73;;;18.63;;
9304;SDS011;4690;52.422;13.486;2023-04-15T08:10:51;20.33;;;18.37;;
9304;SDS011;4690;52.422;13.486;2023-04-15T08:13:17;21.67;;;19.40;;
9304;SDS011;4690;52.422;13.486;2023-04-15T08:15:43;20.97;;;18.87;;
9304;SDS011;4690;52.422;13.486;2023-04-15T08:18:09;21.23;;;19.07;;
9304;SDS011;4690;52.422;13.486;2023-04-15T08:20:35;19.97;;;18.03;;
9304;SDS011;4690;52.422;13.486;2023-04-15T08:23:01;20.73;;;18.60;;
9304;SDS011;4690;52.422;13.486;2023-04-15T08:25:28;19.93;;;18.03;;
9304;SDS011;4690;52.422;13.486;2023-04-15T08:27:54;19.67;;;17.57;;
9304;SDS011;4690;52.422;13.486;2023-04-15T08:30:21;20.60;;;18.40;;
9304;SDS011;4690;52.422;13.486;2023-04-15T08:32:47;19.37;;;17.23;;
9304;SDS011;4690;52.422;13.486;2023-04-15T08:35:15;20.43;;;18.33;;
9304;SDS011;4690;52.422;13.486;2023-04-15T08:37:40;19.90;;;17.90;;
9304;SDS011;4690;52.422;13.486;2023-04-15T08:40:06;20.77;;;18.63;;
9304;SDS011;4690;52.422;13.486;2023-04-15T08:42:38;19.67;;;17.87;;
9304;SDS011;4690;52.422;13.486;2023-04-15T08:45:09;20.63;;;18.63;;
9304;SDS011;4690;52.422;13.486;2023-04-15T08:47:35;20.40;;;18.53;;
9304;SDS011;4690;52.422;13.486;2023-04-15T08:50:04;19.23;;;17.27;;
9304;SDS011;4690;52.422;13.486;2023-04-15T08:52:33;19.13;;;17.30;;
9304;SDS011;4690;52.422;13.486;2023-04-15T08:55:01;21.07;;;18.70;;
9304;SDS011;4690;52.422;13.486;2023-04-15T08:57:28;20.03;;;18.13;;
9304;SDS011;4690;52.422;13.486;2023-04-15T08:59:57;18.90;;;17.10;;
9304;SDS011;4690;52.422;13.486;2023-04-15T09:02:23;19.17;;;17.27;;
9304;SDS011;4690;52.422;13.486;2023-04-15T09:04:51;18.27;;;16.37;;
9304;SDS011;4690;52.422;13.486;2023-04-15T09:07:17;18.80;;;16.83;;
9304;SDS011;4690;52.422;13.486;2023-04-15T09:09:43;18.77;;;16.87;;
9304;SDS011;4690;52.422;13.486;2023-04-15T09:12:10;18.37;;;16.57;;
9304;SDS011;4690;52.422;13.486;2023-04-15T09:14:37;17.00;;;15.47;;
9304;SDS011;4690;52.422;13.486;2023-04-15T09:17:05;18.33;;;16.53;;
9304;SDS011;4690;52.422;13.486;2023-04-15T09:19:35;17.97;;;16.30;;
9304;SDS011;4690;52.422;13.486;2023-04-15T09:22:01;17.27;;;15.50;;
9304;SDS011;4690;52.422;13.486;2023-04-15T09:24:37;18.07;;;16.17;;
9304;SDS011;4690;52.422;13.486;2023-04-15T09:27:06;17.77;;;16.03;;
9304;SDS011;4690;52.422;13.486;2023-04-15T09:29:32;17.47;;;15.87;;
9304;SDS011;4690;52.422;13.486;2023-04-15T09:32:13;17.80;;;16.27;;
9304;SDS011;4690;52.422;13.486;2023-04-15T09:34:40;17.30;;;15.30;;
9304;SDS011;4690;52.422;13.486;2023-04-15T09:37:06;17.07;;;15.47;;
9304;SDS011;4690;52.422;13.486;2023-04-15T09:39:47;17.17;;;15.63;;
9304;SDS011;4690;52.422;13.486;2023-04-15T09:42:15;18.40;;;16.63;;
9304;SDS011;4690;52.422;13.486;2023-04-15T09:44:48;17.10;;;15.50;;
9304;SDS011;4690;52.422;13.486;2023-04-15T09:47:28;17.57;;;15.97;;
9304;SDS011;4690;52.422;13.486;2023-04-15T09:49:56;16.90;;;15.40;;
9304;SDS011;4690;52.422;13.486;2023-04-15T09:52:23;17.77;;;16.17;;
9304;SDS011;4690;52.422;13.486;2023-04-15T09:54:51;18.30;;;16.70;;
9304;SDS011;4690;52.422;13.486;2023-04-15T09:57:23;18.07;;;16.20;;
9304;SDS011;4690;52.422;13.486;2023-04-15T09:59:49;18.60;;;16.90;;
9304;SDS011;4690;52.422;13.486;2023-04-15T10:02:17;18.70;;;16.80;;
9304;SDS011;4690;52.422;13.486;2023-04-15T10:04:45;17.63;;;15.93;;
9304;SDS011;4690;52.422;13.486;2023-04-15T10:07:13;17.93;;;16.17;;
9304;SDS011;4690;52.422;13.486;2023-04-15T10:09:39;17.07;;;15.50;;
9304;SDS011;4690;52.422;13.486;2023-04-15T10:12:09;17.83;;;16.23;;
9304;SDS011;4690;52.422;13.486;2023-04-15T10:14:36;16.73;;;15.23;;
9304;SDS011;4690;52.422;13.486;2023-04-15T10:17:05;16.77;;;15.13;;
9304;SDS011;4690;52.422;13.486;2023-04-15T10:19:36;16.53;;;15.20;;
9304;SDS011;4690;52.422;13.486;2023-04-15T10:22:02;16.20;;;14.67;;
9304;SDS011;4690;52.422;13.486;2023-04-15T10:24:31;16.13;;;14.63;;
9304;SDS011;4690;52.422;13.486;2023-04-15T10:26:58;16.80;;;15.23;;
9304;SDS011;4690;52.422;13.486;2023-04-15T10:29:25;16.40;;;14.80;;
9304;SDS011;4690;52.422;13.486;2023-04-15T10:31:54;16.43;;;14.93;;
9304;SDS011;4690;52.422;13.486;2023-04-15T10:34:21;16.63;;;15.03;;
9304;SDS011;4690;52.422;13.486;2023-04-15T10:36:49;16.80;;;15.30;;
9304;SDS011;4690;52.422;13.486;2023-04-15T10:42:06;16.33;;;14.83;;
9304;SDS011;4690;52.422;13.486;2023-04-15T10:47:14;16.33;;;14.83;;
9304;SDS011;4690;52.422;13.486;2023-04-15T10:49:44;17.70;;;16.00;;
9304;SDS011;4690;52.422;13.486;2023-04-15T10:52:15;17.60;;;15.90;;
9304;SDS011;4690;52.422;13.486;2023-04-15T10:54:46;17.97;;;16.07;;
9304;SDS011;4690;52.422;13.486;2023-04-15T10:57:22;16.53;;;15.03;;
9304;SDS011;4690;52.422;13.486;2023-04-15T11:02:37;16.80;;;15.23;;
9304;SDS011;4690;52.422;13.486;2023-04-15T11:05:06;16.60;;;15.10;;
9304;SDS011;4690;52.422;13.486;2023-04-15T11:07:33;17.33;;;15.63;;
9304;SDS011;4690;52.422;13.486;2023-04-15T11:10:49;17.17;;;15.63;;
9304;SDS011;4690;52.422;13.486;2023-04-15T11:13:01;17.43;;;15.87;;
9304;SDS011;4690;52.422;13.486;2023-04-15T11:15:42;17.00;;;15.43;;
9304;SDS011;4690;52.422;13.486;2023-04-15T11:20:46;18.60;;;16.80;;
9304;SDS011;4690;52.422;13.486;2023-04-15T11:23:14;16.90;;;15.30;;
9304;SDS011;4690;52.422;13.486;2023-04-15T11:25:43;17.53;;;15.97;;
9304;SDS011;4690;52.422;13.486;2023-04-15T11:28:10;16.83;;;15.13;;
9304;SDS011;4690;52.422;13.486;2023-04-15T11:30:37;16.17;;;14.67;;
9304;SDS011;4690;52.422;13.486;2023-04-15T11:33:05;16.93;;;15.13;;
9304;SDS011;4690;52.422;13.486;2023-04-15T11:35:33;15.93;;;14.53;;
9304;SDS011;4690;52.422;13.486;2023-04-15T11:38:03;15.33;;;13.93;;
9304;SDS011;4690;52.422;13.486;2023-04-15T11:40:32;15.67;;;14.27;;
9304;SDS011;4690;52.422;13.486;2023-04-15T11:45:56;17.00;;;15.20;;
9304;SDS011;4690;52.422;13.486;2023-04-15T11:48:27;16.10;;;14.50;;
9304;SDS011;4690;52.422;13.486;2023-04-15T11:51:00;15.73;;;14.17;;
9304;SDS011;4690;52.422;13.486;2023-04-15T11:53:49;18.53;;;15.63;;
9304;SDS011;4690;52.422;13.486;2023-04-15T11:56:16;16.27;;;14.80;;
9304;SDS011;4690;52.422;13.486;2023-04-15T11:58:45;15.43;;;13.97;;
9304;SDS011;4690;52.422;13.486;2023-04-15T12:01:12;16.87;;;15.07;;
9304;SDS011;4690;52.422;13.486;2023-04-15T12:11:29;15.50;;;14.00;;
9304;SDS011;4690;52.422;13.486;2023-04-15T12:16:33;15.43;;;14.00;;
9304;SDS011;4690;52.422;13.486;2023-04-15T12:19:11;16.27;;;14.70;;
9304;SDS011;4690;52.422;13.486;2023-04-15T12:21:41;16.30;;;14.80;;
9304;SDS011;4690;52.422;13.486;2023-04-15T12:24:11;15.03;;;13.53;;
9304;SDS011;4690;52.422;13.486;2023-04-15T12:26:41;14.67;;;13.27;;
9304;SDS011;4690;52.422;13.486;2023-04-15T12:29:14;15.97;;;14.47;;
9304;SDS011;4690;52.422;13.486;2023-04-15T12:31:48;14.73;;;13.33;;
9304;SDS011;4690;52.422;13.486;2023-04-15T12:34:17;15.43;;;14.00;;
9304;SDS011;4690;52.422;13.486;2023-04-15T12:36:54;15.40;;;14.00;;
9304;SDS011;4690;52.422;13.486;2023-04-15T12:39:25;15.07;;;13.67;;
9304;SDS011;4690;52.422;13.486;2023-04-15T12:41:53;14.37;;;13.00;;
9304;SDS011;4690;52.422;13.486;2023-04-15T12:44:21;16.23;;;13.43;;
9304;SDS011;4690;52.422;13.486;2023-04-15T12:46:48;13.63;;;12.33;;
9304;SDS011;4690;52.422;13.486;2023-04-15T12:49:15;12.40;;;11.30;;
9304;SDS011;4690;52.422;13.486;2023-04-15T12:51:44;13.83;;;12.43;;
9304;SDS011;4690;52.422;13.486;2023-04-15T12:54:11;13.57;;;12.27;;
9304;SDS011;4690;52.422;13.486;2023-04-15T12:56:37;14.33;;;12.93;;
9304;SDS011;4690;52.422;13.486;2023-04-15T12:59:02;13.47;;;12.27;;
9304;SDS011;4690;52.422;13.486;2023-04-15T13:01:28;12.63;;;11.43;;
9304;SDS011;4690;52.422;13.486;2023-04-15T13:03:54;14.00;;;12.63;;
9304;SDS011;4690;52.422;13.486;2023-04-15T13:06:20;13.90;;;12.47;;
9304;SDS011;4690;52.422;13.486;2023-04-15T13:08:46;12.77;;;11.57;;
9304;SDS011;4690;52.422;13.486;2023-04-15T13:11:12;13.27;;;12.07;;
9304;SDS011;4690;52.422;13.486;2023-04-15T13:13:38;14.00;;;12.60;;
9304;SDS011;4690;52.422;13.486;2023-04-15T13:16:03;13.53;;;11.97;;
9304;SDS011;4690;52.422;13.486;2023-04-15T13:18:30;13.30;;;11.90;;
9304;SDS011;4690;52.422;13.486;2023-04-15T13:20:56;13.17;;;11.87;;
9304;SDS011;4690;52.422;13.486;2023-04-15T13:23:22;12.00;;;10.90;;
9304;SDS011;4690;52.422;13.486;2023-04-15T13:25:47;11.60;;;10.60;;
9304;SDS011;4690;52.422;13.486;2023-04-15T13:28:13;12.67;;;11.37;;
9304;SDS011;4690;52.422;13.486;2023-04-15T13:30:39;13.30;;;11.33;;
9304;SDS011;4690;52.422;13.486;2023-04-15T13:33:05;12.30;;;11.20;;
9304;SDS011;4690;52.422;13.486;2023-04-15T13:35:31;12.50;;;11.37;;
9304;SDS011;4690;52.422;13.486;2023-04-15T13:37:57;12.10;;;11.00;;
9304;SDS011;4690;52.422;13.486;2023-04-15T13:40:22;11.67;;;10.67;;
9304;SDS011;4690;52.422;13.486;2023-04-15T13:42:49;12.23;;;11.10;;
9304;SDS011;4690;52.422;13.486;2023-04-15T13:45:16;11.13;;;10.17;;
9304;SDS011;4690;52.422;13.486;2023-04-15T13:47:41;11.97;;;10.97;;
9304;SDS011;4690;52.422;13.486;2023-04-15T13:50:07;12.50;;;11.30;;
9304;SDS011;4690;52.422;13.486;2023-04-15T13:52:33;11.73;;;10.60;;
9304;SDS011;4690;52.422;13.486;2023-04-15T13:54:59;11.03;;;9.93;;
9304;SDS011;4690;52.422;13.486;2023-04-15T13:57:25;11.23;;;10.13;;
9304;SDS011;4690;52.422;13.486;2023-04-15T13:59:51;10.57;;;9.77;;
9304;SDS011;4690;52.422;13.486;2023-04-15T14:02:16;10.37;;;9.47;;
9304;SDS011;4690;52.422;13.486;2023-04-15T14:04:45;11.47;;;10.43;;
9304;SDS011;4690;52.422;13.486;2023-04-15T14:07:11;10.77;;;9.83;;
9304;SDS011;4690;52.422;13.486;2023-04-15T14:09:36;10.37;;;9.43;;
9304;SDS011;4690;52.422;13.486;2023-04-15T14:12:02;11.07;;;9.97;;
9304;SDS011;4690;52.422;13.486;2023-04-15T14:14:28;10.57;;;9.63;;
9304;SDS011;4690;52.422;13.486;2023-04-15T14:16:54;11.70;;;10.60;;
9304;SDS011;4690;52.422;13.486;2023-04-15T14:19:21;11.63;;;10.63;;
9304;SDS011;4690;52.422;13.486;2023-04-15T14:21:48;12.07;;;11.03;;
9304;SDS011;4690;52.422;13.486;2023-04-15T14:24:14;11.20;;;10.20;;
9304;SDS011;4690;52.422;13.486;2023-04-15T14:26:39;11.53;;;10.53;;
9304;SDS011;4690;52.422;13.486;2023-04-15T14:29:07;11.83;;;10.73;;
9304;SDS011;4690;52.422;13.486;2023-04-15T14:31:33;11.90;;;10.70;;
9304;SDS011;4690;52.422;13.486;2023-04-15T14:33:59;12.87;;;11.77;;
9304;SDS011;4690;52.422;13.486;2023-04-15T14:36:25;11.47;;;10.37;;
9304;SDS011;4690;52.422;13.486;2023-04-15T14:38:51;11.03;;;10.03;;
9304;SDS011;4690;52.422;13.486;2023-04-15T14:41:17;11.57;;;10.47;;
9304;SDS011;4690;52.422;13.486;2023-04-15T14:43:43;10.67;;;9.70;;
9304;SDS011;4690;52.422;13.486;2023-04-15T14:46:09;11.17;;;10.17;;
9304;SDS011;4690;52.422;13.486;2023-04-15T14:48:35;11.43;;;10.33;;
9304;SDS011;4690;52.422;13.486;2023-04-15T14:51:01;10.03;;;9.23;;
9304;SDS011;4690;52.422;13.486;2023-04-15T14:53:27;11.87;;;10.77;;
9304;SDS011;4690;52.422;13.486;2023-04-15T14:55:53;13.07;;;11.77;;
9304;SDS011;4690;52.422;13.486;2023-04-15T14:58:18;12.27;;;11.27;;
9304;SDS011;4690;52.422;13.486;2023-04-15T15:00:44;13.13;;;11.93;;